Time;durP1;ratioP1;P1;durP2;ratioP2;P2;SDS_P1;SDS_P2;PMS_P1;PMS_P2;Temp;Humidity;BMP_temperature;BMP_pressure;BME280_temperature;BME280_humidity;BME280_pressure;Samples;Min_cycle;Max_cycle;Signal;HPM_P1;HPM_P2
2022/09/30 00:00:01;;;;;;;;;;;;;;;;;;2132331;27;19954;-41
2022/09/30 00:01:02;;;;;;;;;;;;;;;;;;2132362;27;20376;-41
2022/09/30 00:02:03;;;;;;;;;;;;;;;;;;2132344;27;19985;-41
2022/09/30 00:03:04;;;;;;;;;;;;;;;;;;2132257;27;20018;-41
2022/09/30 00:04:05;;;;;;;;;;;;;;;;;;2132400;27;19954;-41
2022/09/30 00:05:06;;;;;;;;;;;;;;;;;;2132426;27;19962;-41
2022/09/30 00:06:06;;;;;;;;;;;;;;;;;;2132513;27;19931;-43
2022/09/30 00:07:09;;;;;;;;;;;;;;;;;;2132520;27;19931;-41
2022/09/30 00:08:10;;;;;;;;;;;;;;;;;;2131639;27;19923;-41
2022/09/30 00:09:11;;;;;;;;;;;;;;;;;;2132245;27;19958;-42
2022/09/30 00:10:16;;;;;;;;;;;;;;;;;;2132217;27;19934;-40
2022/09/30 00:11:17;;;;;;;;;;;;;;;;;;2132070;27;19923;-41
2022/09/30 00:12:17;;;;;;;;;;;;;;;;;;2132174;27;19923;-40
2022/09/30 00:13:18;;;;;;;;;;;;;;;;;;2132187;27;19923;-40
2022/09/30 00:14:19;;;;;;;;;;;;;;;;;;2132256;27;20364;-39
2022/09/30 00:15:20;;;;;;;;;;;;;;;;;;2132322;27;20006;-41
2022/09/30 00:16:21;;;;;;;;;;;;;;;;;;2132246;27;20325;-41
2022/09/30 00:17:22;;;;;;;;;;;;;;;;;;2132160;27;19949;-41
2022/09/30 00:18:22;;;;;;;;;;;;;;;;;;2132453;27;19927;-41
2022/09/30 00:19:23;;;;;;;;;;;;;;;;;;2132313;27;19923;-43
2022/09/30 00:20:24;;;;;;;;;;;;;;;;;;2132293;27;19974;-43
2022/09/30 00:21:25;;;;;;;;;;;;;;;;;;2132081;27;20017;-43
2022/09/30 00:22:26;;;;;;;;;;;;;;;;;;2132130;27;20028;-44
2022/09/30 00:23:27;;;;;;;;;;;;;;;;;;2132058;27;19927;-45
2022/09/30 00:24:27;;;;;;;;;;;;;;;;;;2132342;27;20346;-41
2022/09/30 00:25:28;;;;;;;;;;;;;;;;;;2132178;27;19966;-41
2022/09/30 00:26:29;;;;;;;;;;;;;;;;;;2132305;27;19923;-41
2022/09/30 00:27:30;;;;;;;;;;;;;;;;;;2132078;27;19923;-41
2022/09/30 00:28:31;;;;;;;;;;;;;;;;;;2132121;27;19963;-41
2022/09/30 00:29:32;;;;;;;;;;;;;;;;;;2132199;27;19958;-41
2022/09/30 00:30:33;;;;;;;;;;;;;;;;;;2132123;27;20288;-41
2022/09/30 00:31:34;;;;;;;;;;;;;;;;;;2131951;27;19923;-41
2022/09/30 00:32:34;;;;;;;;;;;;;;;;;;2132049;27;20384;-41
2022/09/30 00:33:36;;;;;;;;;;;;;;;;;;2132050;27;19935;-41
2022/09/30 00:34:36;;;;;;;;;;;;;;;;;;2132183;27;19971;-41
2022/09/30 00:35:37;;;;;;;;;;;;;;;;;;2132092;27;20021;-41
2022/09/30 00:36:38;;;;;;;;;;;;;;;;;;2131987;27;19966;-41
2022/09/30 00:37:39;;;;;;;;;;;;;;;;;;2131961;27;19923;-41
2022/09/30 00:38:39;;;;;;;;;;;;;;;;;;2132247;27;19931;-43
2022/09/30 00:39:40;;;;;;;;;;;;;;;;;;2132034;27;19923;-45
2022/09/30 00:40:42;;;;;;;;;;;;;;;;;;2132177;27;19927;-45
2022/09/30 00:41:43;;;;;;;;;;;;;;;;;;2131939;27;20423;-44
2022/09/30 00:42:43;;;;;;;;;;;;;;;;;;2132126;27;19923;-44
2022/09/30 00:43:50;;;;;;;;;;;;;;;;;;2132169;27;19923;-44
2022/09/30 00:44:50;;;;;;;;;;;;;;;;;;2132051;27;19930;-43
2022/09/30 00:45:51;;;;;;;;;;;;;;;;;;2132055;27;19930;-44
2022/09/30 00:46:53;;;;;;;;;;;;;;;;;;2131967;27;19925;-44
2022/09/30 00:47:54;;;;;;;;;;;;;;;;;;2132113;27;19927;-44
2022/09/30 00:48:55;;;;;;;;;;;;;;;;;;2131949;27;19923;-44
2022/09/30 00:49:56;;;;;;;;;;;;;;;;;;2132169;27;19923;-44
2022/09/30 00:50:57;;;;;;;;;;;;;;;;;;2131984;27;19926;-45
2022/09/30 00:51:58;;;;;;;;;;;;;;;;;;2132087;27;19973;-44
2022/09/30 00:52:59;;;;;;;;;;;;;;;;;;2131974;27;19930;-44
2022/09/30 00:53:59;;;;;;;;;;;;;;;;;;2132108;27;20279;-44
2022/09/30 00:55:00;;;;;;;;;;;;;;;;;;2132076;27;19927;-44
2022/09/30 00:56:01;;;;;;;;;;;;;;;;;;2132074;27;19992;-44
2022/09/30 00:57:02;;;;;;;;;;;;;;;;;;2131973;27;19930;-43
2022/09/30 00:58:03;;;;;;;;;;;;;;;;;;2132293;27;19923;-42
2022/09/30 00:59:04;;;;;;;;;;;;;;;;;;2131973;27;20284;-42
2022/09/30 01:00:04;;;;;;;;;;;;;;;;;;2131924;27;19923;-42
2022/09/30 01:01:06;;;;;;;;;;;;;;;;;;2132030;27;19965;-42
2022/09/30 01:02:09;;;;;;;;;;;;;;;;;;2131858;27;20384;-42
2022/09/30 01:03:10;;;;;;;;;;;;;;;;;;2131945;27;19930;-42
2022/09/30 01:04:10;;;;;;;;;;;;;;;;;;2131893;27;19923;-42
2022/09/30 01:05:12;;;;;;;;;;;;;;;;;;2131892;27;19967;-42
2022/09/30 01:06:13;;;;;;;;;;;;;;;;;;2131883;27;20329;-42
2022/09/30 01:07:14;;;;;;;;;;;;;;;;;;2131920;27;19923;-42
2022/09/30 01:08:17;;;;;;;;;;;;;;;;;;2131969;27;19962;-42
2022/09/30 01:09:17;;;;;;;;;;;;;;;;;;2131889;27;20283;-42
2022/09/30 01:10:18;;;;;;;;;;;;;;;;;;2131953;27;20384;-42
2022/09/30 01:11:19;;;;;;;;;;;;;;;;;;2131812;27;19923;-43
2022/09/30 01:12:20;;;;;;;;;;;;;;;;;;2131997;27;19923;-44
2022/09/30 01:13:22;;;;;;;;;;;;;;;;;;2131753;27;19923;-44
2022/09/30 01:14:23;;;;;;;;;;;;;;;;;;2131865;27;19923;-44
2022/09/30 01:15:24;;;;;;;;;;;;;;;;;;2131807;27;19923;-43
2022/09/30 01:16:24;;;;;;;;;;;;;;;;;;2131952;27;19956;-44
2022/09/30 01:17:25;;;;;;;;;;;;;;;;;;2132091;27;19934;-41
2022/09/30 01:18:26;;;;;;;;;;;;;;;;;;2131879;27;20385;-42
2022/09/30 01:19:27;;;;;;;;;;;;;;;;;;2131659;27;19970;-42
2022/09/30 01:20:28;;;;;;;;;;;;;;;;;;2131833;27;19931;-42
2022/09/30 01:21:29;;;;;;;;;;;;;;;;;;2131888;27;19968;-42
2022/09/30 01:22:29;;;;;;;;;;;;;;;;;;2131762;27;20276;-42
2022/09/30 01:23:30;;;;;;;;;;;;;;;;;;2131728;27;19923;-41
2022/09/30 01:24:31;;;;;;;;;;;;;;;;;;2131831;27;19930;-42
2022/09/30 01:25:32;;;;;;;;;;;;;;;;;;2131929;27;20407;-42
2022/09/30 01:26:33;;;;;;;;;;;;;;;;;;2131775;27;19938;-42
2022/09/30 01:27:33;;;;;;;;;;;;;;;;;;2131792;27;20035;-42
2022/09/30 01:28:34;;;;;;;;;;;;;;;;;;2131633;27;19930;-42
2022/09/30 01:29:35;;;;;;;;;;;;;;;;;;2131847;27;20251;-41
2022/09/30 01:30:36;;;;;;;;;;;;;;;;;;2131910;27;19923;-42
2022/09/30 01:31:41;;;;;;;;;;;;;;;;;;2131621;27;20004;-42
2022/09/30 01:32:42;;;;;;;;;;;;;;;;;;2131818;27;20398;-42
2022/09/30 01:33:43;;;;;;;;;;;;;;;;;;2131687;27;19930;-42
2022/09/30 01:34:44;;;;;;;;;;;;;;;;;;2131882;27;19923;-42
2022/09/30 01:35:45;;;;;;;;;;;;;;;;;;2132009;27;20256;-44
2022/09/30 01:36:46;;;;;;;;;;;;;;;;;;2131776;27;19930;-44
2022/09/30 01:37:48;;;;;;;;;;;;;;;;;;2131715;27;19927;-44
2022/09/30 01:38:48;;;;;;;;;;;;;;;;;;2131708;27;20006;-44
2022/09/30 01:39:49;;;;;;;;;;;;;;;;;;2131655;27;19923;-44
2022/09/30 01:40:50;;;;;;;;;;;;;;;;;;2131766;27;19923;-45
2022/09/30 01:41:53;;;;;;;;;;;;;;;;;;2131666;27;19923;-44
2022/09/30 01:42:54;;;;;;;;;;;;;;;;;;2131660;27;19923;-44
2022/09/30 01:43:55;;;;;;;;;;;;;;;;;;2131630;27;19927;-44
2022/09/30 01:44:57;;;;;;;;;;;;;;;;;;2131690;27;19923;-44
2022/09/30 01:45:58;;;;;;;;;;;;;;;;;;2131805;27;19930;-44
2022/09/30 01:46:59;;;;;;;;;;;;;;;;;;2131659;27;20268;-43
2022/09/30 01:48:00;;;;;;;;;;;;;;;;;;2131785;27;19923;-44
2022/09/30 01:49:01;;;;;;;;;;;;;;;;;;2131670;27;20330;-44
2022/09/30 01:50:02;;;;;;;;;;;;;;;;;;2131835;27;19936;-45
2022/09/30 01:51:03;;;;;;;;;;;;;;;;;;2131749;27;19923;-44
2022/09/30 01:52:04;;;;;;;;;;;;;;;;;;2131513;27;19923;-44
2022/09/30 01:53:04;;;;;;;;;;;;;;;;;;2131685;27;20030;-43
2022/09/30 01:54:05;;;;;;;;;;;;;;;;;;2131580;27;19923;-44
2022/09/30 01:55:06;;;;;;;;;;;;;;;;;;2131611;27;19959;-44
2022/09/30 01:56:07;;;;;;;;;;;;;;;;;;2131574;27;19927;-44
2022/09/30 01:57:08;;;;;;;;;;;;;;;;;;2131586;27;19927;-45
2022/09/30 01:58:09;;;;;;;;;;;;;;;;;;2131557;27;19931;-44
2022/09/30 01:59:09;;;;;;;;;;;;;;;;;;2131762;27;19929;-44
2022/09/30 02:00:10;;;;;;;;;;;;;;;;;;2131691;27;20037;-44
2022/09/30 02:01:11;;;;;;;;;;;;;;;;;;2131602;27;19930;-44
2022/09/30 02:02:14;;;;;;;;;;;;;;;;;;2131639;27;19930;-45
2022/09/30 02:03:15;;;;;;;;;;;;;;;;;;2131639;27;19968;-44
2022/09/30 02:04:16;;;;;;;;;;;;;;;;;;2132060;27;20304;-42
2022/09/30 02:05:17;;;;;;;;;;;;;;;;;;2131635;27;19923;-41
2022/09/30 02:06:18;;;;;;;;;;;;;;;;;;2131631;27;20034;-41
2022/09/30 02:07:18;;;;;;;;;;;;;;;;;;2131434;27;19930;-41
2022/09/30 02:08:19;;;;;;;;;;;;;;;;;;2131914;27;19923;-41
2022/09/30 02:09:20;;;;;;;;;;;;;;;;;;2131521;27;20023;-42
2022/09/30 02:10:22;;;;;;;;;;;;;;;;;;2131647;27;19923;-41
2022/09/30 02:11:23;;;;;;;;;;;;;;;;;;2131371;27;19935;-41
2022/09/30 02:12:24;;;;;;;;;;;;;;;;;;2131692;27;19923;-41
2022/09/30 02:13:25;;;;;;;;;;;;;;;;;;2131580;27;19970;-41
2022/09/30 02:14:26;;;;;;;;;;;;;;;;;;2131488;27;19924;-41
2022/09/30 02:15:27;;;;;;;;;;;;;;;;;;2131445;27;19984;-41
2022/09/30 02:16:28;;;;;;;;;;;;;;;;;;2131462;27;19927;-41
2022/09/30 02:17:28;;;;;;;;;;;;;;;;;;2131659;27;20010;-41
2022/09/30 02:18:30;;;;;;;;;;;;;;;;;;2131470;27;19970;-41
2022/09/30 02:19:30;;;;;;;;;;;;;;;;;;2131610;27;19930;-41
2022/09/30 02:20:31;;;;;;;;;;;;;;;;;;2131479;27;19923;-41
2022/09/30 02:21:32;;;;;;;;;;;;;;;;;;2131544;27;19951;-42
2022/09/30 02:22:39;;;;;;;;;;;;;;;;;;2131556;27;20372;-41
2022/09/30 02:23:40;;;;;;;;;;;;;;;;;;2131460;27;19945;-41
2022/09/30 02:24:42;;;;;;;;;;;;;;;;;;2131456;27;19927;-41
2022/09/30 02:25:43;;;;;;;;;;;;;;;;;;2131477;27;19930;-41
2022/09/30 02:26:45;;;;;;;;;;;;;;;;;;2131507;27;19924;-42
2022/09/30 02:27:45;;;;;;;;;;;;;;;;;;2131445;27;19968;-41
2022/09/30 02:28:47;;;;;;;;;;;;;;;;;;2131610;27;19944;-41
2022/09/30 02:29:48;;;;;;;;;;;;;;;;;;2131377;27;19927;-41
2022/09/30 02:30:49;;;;;;;;;;;;;;;;;;2131462;27;19923;-41
2022/09/30 02:31:50;;;;;;;;;;;;;;;;;;2132615;27;19930;-41
2022/09/30 02:32:51;;;;;;;;;;;;;;;;;;2132910;27;19930;-41
2022/09/30 02:33:53;;;;;;;;;;;;;;;;;;2132844;27;19972;-41
2022/09/30 02:34:54;;;;;;;;;;;;;;;;;;2133049;27;19938;-41
2022/09/30 02:35:56;;;;;;;;;;;;;;;;;;2133015;27;19981;-41
2022/09/30 02:36:57;;;;;;;;;;;;;;;;;;2132788;27;19923;-41
2022/09/30 02:37:57;;;;;;;;;;;;;;;;;;2132879;27;20017;-41
2022/09/30 02:38:58;;;;;;;;;;;;;;;;;;2132821;27;19999;-41
2022/09/30 02:40:00;;;;;;;;;;;;;;;;;;2132838;27;19923;-41
2022/09/30 02:41:01;;;;;;;;;;;;;;;;;;2132917;27;19923;-41
2022/09/30 02:42:02;;;;;;;;;;;;;;;;;;2132876;27;19927;-42
2022/09/30 02:43:03;;;;;;;;;;;;;;;;;;2132889;27;20366;-41
2022/09/30 02:44:03;;;;;;;;;;;;;;;;;;2132992;27;19972;-43
2022/09/30 02:45:06;;;;;;;;;;;;;;;;;;2132915;27;19923;-44
2022/09/30 02:46:07;;;;;;;;;;;;;;;;;;2132799;27;19930;-44
2022/09/30 02:47:08;;;;;;;;;;;;;;;;;;2132752;27;19966;-44
2022/09/30 02:48:09;;;;;;;;;;;;;;;;;;2133006;27;19923;-45
2022/09/30 02:49:10;;;;;;;;;;;;;;;;;;2132916;27;19923;-44
2022/09/30 02:50:11;;;;;;;;;;;;;;;;;;2132830;27;20295;-43
2022/09/30 02:51:12;;;;;;;;;;;;;;;;;;2133139;27;20018;-44
2022/09/30 02:52:14;;;;;;;;;;;;;;;;;;2132676;27;20328;-43
2022/09/30 02:53:15;;;;;;;;;;;;;;;;;;2132931;27;19975;-43
2022/09/30 02:54:16;;;;;;;;;;;;;;;;;;2132915;27;19923;-43
2022/09/30 02:55:17;;;;;;;;;;;;;;;;;;2132903;27;19924;-43
2022/09/30 02:56:18;;;;;;;;;;;;;;;;;;2132932;27;19978;-40
2022/09/30 02:57:19;;;;;;;;;;;;;;;;;;2132653;27;19991;-40
2022/09/30 02:58:20;;;;;;;;;;;;;;;;;;2132877;27;19923;-41
2022/09/30 02:59:21;;;;;;;;;;;;;;;;;;2132744;27;19929;-40
2022/09/30 03:00:22;;;;;;;;;;;;;;;;;;2132770;27;19974;-40
2022/09/30 03:01:23;;;;;;;;;;;;;;;;;;2132623;27;19923;-40
2022/09/30 03:02:24;;;;;;;;;;;;;;;;;;2132854;27;20271;-40
2022/09/30 03:03:25;;;;;;;;;;;;;;;;;;2132728;27;19974;-40
2022/09/30 03:04:26;;;;;;;;;;;;;;;;;;2132813;27;20359;-40
2022/09/30 03:05:27;;;;;;;;;;;;;;;;;;2132696;27;19923;-40
2022/09/30 03:06:28;;;;;;;;;;;;;;;;;;2132782;27;19934;-40
2022/09/30 03:07:29;;;;;;;;;;;;;;;;;;2132765;27;20402;-40
2022/09/30 03:08:29;;;;;;;;;;;;;;;;;;2132681;27;19945;-42
2022/09/30 03:09:30;;;;;;;;;;;;;;;;;;2132832;27;20002;-40
2022/09/30 03:10:31;;;;;;;;;;;;;;;;;;2132664;27;19980;-40
2022/09/30 03:11:32;;;;;;;;;;;;;;;;;;2132462;27;20395;-41
2022/09/30 03:12:33;;;;;;;;;;;;;;;;;;2132484;27;20372;-41
2022/09/30 03:13:34;;;;;;;;;;;;;;;;;;2132646;27;19981;-41
2022/09/30 03:14:35;;;;;;;;;;;;;;;;;;2132727;27;20444;-41
2022/09/30 03:15:38;;;;;;;;;;;;;;;;;;2132896;27;19923;-41
2022/09/30 03:16:39;;;;;;;;;;;;;;;;;;2132810;27;19923;-44
2022/09/30 03:17:40;;;;;;;;;;;;;;;;;;2132743;27;20041;-43
2022/09/30 03:18:40;;;;;;;;;;;;;;;;;;2132652;27;19927;-44
2022/09/30 03:19:41;;;;;;;;;;;;;;;;;;2132773;27;19965;-43
2022/09/30 03:20:42;;;;;;;;;;;;;;;;;;2132728;27;19930;-41
2022/09/30 03:21:43;;;;;;;;;;;;;;;;;;2132550;27;20536;-41
2022/09/30 03:22:44;;;;;;;;;;;;;;;;;;2132550;27;20015;-41
2022/09/30 03:23:45;;;;;;;;;;;;;;;;;;2132518;27;19974;-41
2022/09/30 03:24:46;;;;;;;;;;;;;;;;;;2132737;27;19923;-41
2022/09/30 03:25:47;;;;;;;;;;;;;;;;;;2132556;27;20320;-41
2022/09/30 03:26:48;;;;;;;;;;;;;;;;;;2132649;27;20025;-41
2022/09/30 03:27:50;;;;;;;;;;;;;;;;;;2132502;27;19924;-41
2022/09/30 03:28:51;;;;;;;;;;;;;;;;;;2132737;27;20288;-44
2022/09/30 03:29:52;;;;;;;;;;;;;;;;;;2132676;27;19934;-45
2022/09/30 03:30:53;;;;;;;;;;;;;;;;;;2132536;27;19930;-43
2022/09/30 03:31:54;;;;;;;;;;;;;;;;;;2132436;27;20380;-43
2022/09/30 03:32:55;;;;;;;;;;;;;;;;;;2132567;27;20018;-43
2022/09/30 03:33:56;;;;;;;;;;;;;;;;;;2132568;27;20435;-43
2022/09/30 03:34:56;;;;;;;;;;;;;;;;;;2132465;27;19930;-44
2022/09/30 03:35:57;;;;;;;;;;;;;;;;;;2132458;27;20401;-43
2022/09/30 03:37:01;;;;;;;;;;;;;;;;;;2132399;27;19946;-44
2022/09/30 03:38:04;;;;;;;;;;;;;;;;;;2132554;27;19923;-43
2022/09/30 03:39:05;;;;;;;;;;;;;;;;;;2132667;27;19962;-44
2022/09/30 03:40:09;;;;;;;;;;;;;;;;;;2132621;27;19969;-43
2022/09/30 03:42:29;;;;;;;;;;;;;;;;;;2132124;27;19923;-43
2022/09/30 03:43:29;;;;;;;;;;;;;;;;;;2131591;27;19923;-45
2022/09/30 03:44:30;;;;;;;;;;;;;;;;;;2132563;27;20014;-44
2022/09/30 03:45:31;;;;;;;;;;;;;;;;;;2132595;27;20295;-44
2022/09/30 03:46:33;;;;;;;;;;;;;;;;;;2132311;27;19922;-44
2022/09/30 03:47:33;;;;;;;;;;;;;;;;;;2132720;27;19958;-44
2022/09/30 03:48:34;;;;;;;;;;;;;;;;;;2132466;27;20297;-46
2022/09/30 03:49:35;;;;;;;;;;;;;;;;;;2132775;27;20018;-41
2022/09/30 03:50:36;;;;;;;;;;;;;;;;;;2132562;27;19927;-41
2022/09/30 03:51:37;;;;;;;;;;;;;;;;;;2132340;27;19927;-41
2022/09/30 03:52:38;;;;;;;;;;;;;;;;;;2132448;27;20017;-41
2022/09/30 03:53:39;;;;;;;;;;;;;;;;;;2132805;27;20507;-40
2022/09/30 03:54:41;;;;;;;;;;;;;;;;;;2132501;27;20268;-41
2022/09/30 03:55:41;;;;;;;;;;;;;;;;;;2132305;27;19923;-41
2022/09/30 03:56:42;;;;;;;;;;;;;;;;;;2132659;27;20336;-41
2022/09/30 03:57:43;;;;;;;;;;;;;;;;;;2132261;27;19923;-41
2022/09/30 03:58:45;;;;;;;;;;;;;;;;;;2132330;27;19923;-41
2022/09/30 03:59:45;;;;;;;;;;;;;;;;;;2132603;27;19923;-43
2022/09/30 04:00:46;;;;;;;;;;;;;;;;;;2132512;27;19930;-44
2022/09/30 04:01:47;;;;;;;;;;;;;;;;;;2132286;27;19923;-43
2022/09/30 04:02:48;;;;;;;;;;;;;;;;;;2132293;27;19927;-45
2022/09/30 04:03:51;;;;;;;;;;;;;;;;;;2132164;27;19923;-46
2022/09/30 04:04:52;;;;;;;;;;;;;;;;;;2132874;27;19945;-43
2022/09/30 04:05:52;;;;;;;;;;;;;;;;;;2132301;27;20018;-40
2022/09/30 04:06:53;;;;;;;;;;;;;;;;;;2132125;27;20395;-43
2022/09/30 04:07:54;;;;;;;;;;;;;;;;;;2132227;27;19923;-43
2022/09/30 04:08:55;;;;;;;;;;;;;;;;;;2123762;28;19923;-42
2022/09/30 04:09:56;;;;;;;;;;;;;;;;;;2124011;28;20331;-41
2022/09/30 04:10:57;;;;;;;;;;;;;;;;;;2123666;28;20403;-42
2022/09/30 04:11:57;;;;;;;;;;;;;;;;;;2131478;27;19927;-42
2022/09/30 04:12:58;;;;;;;;;;;;;;;;;;2132583;27;20399;-44
2022/09/30 04:14:00;;;;;;;;;;;;;;;;;;2132202;27;19930;-42
2022/09/30 04:15:01;;;;;;;;;;;;;;;;;;2132155;27;19923;-42
2022/09/30 04:16:01;;;;;;;;;;;;;;;;;;2132167;27;19934;-45
2022/09/30 04:17:03;;;;;;;;;;;;;;;;;;2132011;27;19930;-42
2022/09/30 04:18:03;;;;;;;;;;;;;;;;;;2132595;27;20292;-43
2022/09/30 04:19:04;;;;;;;;;;;;;;;;;;2132256;27;20291;-42
2022/09/30 04:20:05;;;;;;;;;;;;;;;;;;2132155;27;19923;-44
2022/09/30 04:21:06;;;;;;;;;;;;;;;;;;2132560;27;19923;-42
2022/09/30 04:22:06;;;;;;;;;;;;;;;;;;2132064;27;19938;-43
2022/09/30 04:23:07;;;;;;;;;;;;;;;;;;2132314;27;19927;-44
2022/09/30 04:24:08;;;;;;;;;;;;;;;;;;2132038;27;20017;-44
2022/09/30 04:25:09;;;;;;;;;;;;;;;;;;2132177;27;19976;-44
2022/09/30 04:26:10;;;;;;;;;;;;;;;;;;2132110;27;20383;-44
2022/09/30 04:27:11;;;;;;;;;;;;;;;;;;2132182;27;19937;-44
2022/09/30 04:28:12;;;;;;;;;;;;;;;;;;2132240;27;19980;-42
2022/09/30 04:29:13;;;;;;;;;;;;;;;;;;2132178;27;19952;-43
2022/09/30 04:30:13;;;;;;;;;;;;;;;;;;2132269;27;20368;-44
2022/09/30 04:31:15;;;;;;;;;;;;;;;;;;2132058;27;19966;-43
2022/09/30 04:32:16;;;;;;;;;;;;;;;;;;2132144;27;20055;-44
2022/09/30 04:33:17;;;;;;;;;;;;;;;;;;2132519;27;20345;-45
2022/09/30 04:34:18;;;;;;;;;;;;;;;;;;2132048;27;20025;-46
2022/09/30 04:35:19;;;;;;;;;;;;;;;;;;2132096;27;20383;-46
2022/09/30 04:36:19;;;;;;;;;;;;;;;;;;2132125;27;19923;-46
2022/09/30 04:37:21;;;;;;;;;;;;;;;;;;2132119;27;19950;-47
2022/09/30 04:38:23;;;;;;;;;;;;;;;;;;2132301;27;20376;-46
2022/09/30 04:39:24;;;;;;;;;;;;;;;;;;2132293;27;20299;-44
2022/09/30 04:40:25;;;;;;;;;;;;;;;;;;2132196;27;19923;-42
2022/09/30 04:41:25;;;;;;;;;;;;;;;;;;2132181;27;19927;-46
2022/09/30 04:42:26;;;;;;;;;;;;;;;;;;2132259;27;19930;-44
2022/09/30 04:43:28;;;;;;;;;;;;;;;;;;2132106;27;19923;-41
2022/09/30 04:44:29;;;;;;;;;;;;;;;;;;2132072;27;19943;-44
2022/09/30 04:45:30;;;;;;;;;;;;;;;;;;2132211;27;20026;-44
2022/09/30 04:46:31;;;;;;;;;;;;;;;;;;2131972;27;20233;-44
2022/09/30 04:47:32;;;;;;;;;;;;;;;;;;2132152;27;19923;-44
2022/09/30 04:48:33;;;;;;;;;;;;;;;;;;2132431;27;19927;-46
2022/09/30 04:49:34;;;;;;;;;;;;;;;;;;2131997;27;20291;-45
2022/09/30 04:50:34;;;;;;;;;;;;;;;;;;2132351;27;20425;-45
2022/09/30 04:51:35;;;;;;;;;;;;;;;;;;2131989;27;20006;-46
2022/09/30 04:52:37;;;;;;;;;;;;;;;;;;2131955;27;19950;-46
2022/09/30 04:53:38;;;;;;;;;;;;;;;;;;2132033;27;19971;-45
2022/09/30 04:54:38;;;;;;;;;;;;;;;;;;2131581;27;20304;-46
2022/09/30 04:55:39;;;;;;;;;;;;;;;;;;2132050;27;19972;-47
2022/09/30 04:56:40;;;;;;;;;;;;;;;;;;2132017;27;20431;-45
2022/09/30 04:57:41;;;;;;;;;;;;;;;;;;2132053;27;19927;-45
2022/09/30 04:58:42;;;;;;;;;;;;;;;;;;2131920;27;20429;-47
2022/09/30 04:59:43;;;;;;;;;;;;;;;;;;2132308;27;19954;-45
2022/09/30 05:00:44;;;;;;;;;;;;;;;;;;2131946;27;20302;-47
2022/09/30 05:01:45;;;;;;;;;;;;;;;;;;2132189;27;19976;-46
2022/09/30 05:02:46;;;;;;;;;;;;;;;;;;2132111;27;20322;-44
2022/09/30 05:03:47;;;;;;;;;;;;;;;;;;2132160;27;19922;-43
2022/09/30 05:04:48;;;;;;;;;;;;;;;;;;2126248;27;19927;-44
2022/09/30 05:05:50;;;;;;;;;;;;;;;;;;2123339;28;20006;-44
2022/09/30 05:06:51;;;;;;;;;;;;;;;;;;2123237;27;20284;-44
2022/09/30 05:07:52;;;;;;;;;;;;;;;;;;2123468;28;20062;-44
2022/09/30 05:08:53;;;;;;;;;;;;;;;;;;2123465;28;19984;-42
2022/09/30 05:09:53;;;;;;;;;;;;;;;;;;2123318;28;19924;-44
2022/09/30 05:10:56;;;;;;;;;;;;;;;;;;2123617;28;19974;-45
2022/09/30 05:11:56;;;;;;;;;;;;;;;;;;2131175;27;19923;-43
2022/09/30 05:12:57;;;;;;;;;;;;;;;;;;2131995;27;19923;-46
2022/09/30 05:13:58;;;;;;;;;;;;;;;;;;2131895;27;20216;-46
2022/09/30 05:14:59;;;;;;;;;;;;;;;;;;2131871;27;19950;-46
2022/09/30 05:16:00;;;;;;;;;;;;;;;;;;2131917;27;19930;-45
2022/09/30 05:17:01;;;;;;;;;;;;;;;;;;2131715;27;19931;-44
2022/09/30 05:18:02;;;;;;;;;;;;;;;;;;2131752;27;19927;-44
2022/09/30 05:19:03;;;;;;;;;;;;;;;;;;2131987;27;19923;-45
2022/09/30 05:20:04;;;;;;;;;;;;;;;;;;2131801;27;19930;-46
2022/09/30 05:21:05;;;;;;;;;;;;;;;;;;2131794;27;20406;-45
2022/09/30 05:22:05;;;;;;;;;;;;;;;;;;2131752;27;19923;-45
2022/09/30 05:23:06;;;;;;;;;;;;;;;;;;2132053;27;19923;-44
2022/09/30 05:24:07;;;;;;;;;;;;;;;;;;2131747;27;20061;-45
2022/09/30 05:25:08;;;;;;;;;;;;;;;;;;2132080;27;19971;-43
2022/09/30 05:26:09;;;;;;;;;;;;;;;;;;2131911;27;19946;-46
2022/09/30 05:27:13;;;;;;;;;;;;;;;;;;2131712;27;19934;-44
2022/09/30 05:28:14;;;;;;;;;;;;;;;;;;2131867;27;19923;-45
2022/09/30 05:29:15;;;;;;;;;;;;;;;;;;2131757;27;19930;-45
2022/09/30 05:30:15;;;;;;;;;;;;;;;;;;2131751;27;19923;-44
2022/09/30 05:31:17;;;;;;;;;;;;;;;;;;2132069;27;19959;-45
2022/09/30 05:32:20;;;;;;;;;;;;;;;;;;2131864;27;20421;-46
2022/09/30 05:33:21;;;;;;;;;;;;;;;;;;2131902;27;19923;-45
2022/09/30 05:34:21;;;;;;;;;;;;;;;;;;2131813;27;19984;-45
2022/09/30 05:35:22;;;;;;;;;;;;;;;;;;2131716;27;20436;-46
2022/09/30 05:36:23;;;;;;;;;;;;;;;;;;2131697;27;20446;-45
2022/09/30 05:37:24;;;;;;;;;;;;;;;;;;2131694;27;19923;-45
2022/09/30 05:38:25;;;;;;;;;;;;;;;;;;2131783;27;19931;-45
2022/09/30 05:39:26;;;;;;;;;;;;;;;;;;2131845;27;20364;-45
2022/09/30 05:40:27;;;;;;;;;;;;;;;;;;2131799;27;20332;-44
2022/09/30 05:41:27;;;;;;;;;;;;;;;;;;2131562;27;19927;-46
2022/09/30 05:42:28;;;;;;;;;;;;;;;;;;2131712;27;20304;-46
2022/09/30 05:43:31;;;;;;;;;;;;;;;;;;2131601;27;19923;-45
2022/09/30 05:44:32;;;;;;;;;;;;;;;;;;2131665;27;19923;-45
2022/09/30 05:45:33;;;;;;;;;;;;;;;;;;2131723;27;19923;-45
2022/09/30 05:46:34;;;;;;;;;;;;;;;;;;2131740;27;19931;-45
2022/09/30 05:47:35;;;;;;;;;;;;;;;;;;2131660;27;19923;-45
2022/09/30 05:48:35;;;;;;;;;;;;;;;;;;2131645;27;20325;-45
2022/09/30 05:49:39;;;;;;;;;;;;;;;;;;2132096;27;20009;-45
2022/09/30 05:50:39;;;;;;;;;;;;;;;;;;2131713;27;20295;-46
2022/09/30 05:51:40;;;;;;;;;;;;;;;;;;2131920;27;20017;-43
2022/09/30 05:52:41;;;;;;;;;;;;;;;;;;2131800;27;19924;-44
2022/09/30 05:53:42;;;;;;;;;;;;;;;;;;2131644;27;19923;-43
2022/09/30 05:54:43;;;;;;;;;;;;;;;;;;2131604;27;19927;-43
2022/09/30 05:55:44;;;;;;;;;;;;;;;;;;2131604;27;19962;-44
2022/09/30 05:56:45;;;;;;;;;;;;;;;;;;2131624;27;19923;-43
2022/09/30 05:57:46;;;;;;;;;;;;;;;;;;2131765;27;19930;-43
2022/09/30 05:58:49;;;;;;;;;;;;;;;;;;2131660;27;19931;-44
2022/09/30 05:59:50;;;;;;;;;;;;;;;;;;2131633;27;19923;-44
2022/09/30 06:00:51;;;;;;;;;;;;;;;;;;2127818;27;19923;-43
2022/09/30 06:01:52;;;;;;;;;;;;;;;;;;2122984;27;19930;-43
2022/09/30 06:02:53;;;;;;;;;;;;;;;;;;2123164;28;20279;-43
2022/09/30 06:03:54;;;;;;;;;;;;;;;;;;2123088;28;19946;-45
2022/09/30 06:04:55;;;;;;;;;;;;;;;;;;2123025;28;20319;-45
2022/09/30 06:05:56;;;;;;;;;;;;;;;;;;2123045;27;19923;-44
2022/09/30 06:06:57;;;;;;;;;;;;;;;;;;2124460;27;19930;-45
2022/09/30 06:07:58;;;;;;;;;;;;;;;;;;2124478;28;19998;-45
2022/09/30 06:08:59;;;;;;;;;;;;;;;;;;2124606;27;19923;-45
2022/09/30 06:09:59;;;;;;;;;;;;;;;;;;2133056;27;20360;-45
2022/09/30 06:11:00;;;;;;;;;;;;;;;;;;2133133;27;19923;-45
2022/09/30 06:12:02;;;;;;;;;;;;;;;;;;2124342;27;20357;-45
2022/09/30 06:13:02;;;;;;;;;;;;;;;;;;2124389;28;19934;-44
2022/09/30 06:14:04;;;;;;;;;;;;;;;;;;2124597;28;20428;-44
2022/09/30 06:15:05;;;;;;;;;;;;;;;;;;2124410;28;19987;-44
2022/09/30 06:16:06;;;;;;;;;;;;;;;;;;2124529;28;19927;-45
2022/09/30 06:17:07;;;;;;;;;;;;;;;;;;2124348;27;20393;-44
2022/09/30 06:18:08;;;;;;;;;;;;;;;;;;2124593;28;19951;-47
2022/09/30 06:19:09;;;;;;;;;;;;;;;;;;2125259;28;19924;-44
2022/09/30 06:20:10;;;;;;;;;;;;;;;;;;2124764;28;19924;-44
2022/09/30 06:21:11;;;;;;;;;;;;;;;;;;2124491;28;20313;-45
2022/09/30 06:22:12;;;;;;;;;;;;;;;;;;2124642;27;19924;-43
2022/09/30 06:23:13;;;;;;;;;;;;;;;;;;2124506;28;20463;-43
2022/09/30 06:24:13;;;;;;;;;;;;;;;;;;2124297;28;20376;-43
2022/09/30 06:25:14;;;;;;;;;;;;;;;;;;2124613;28;19924;-45
2022/09/30 06:26:15;;;;;;;;;;;;;;;;;;2124321;28;19923;-45
2022/09/30 06:27:16;;;;;;;;;;;;;;;;;;2124462;27;19923;-45
2022/09/30 06:28:17;;;;;;;;;;;;;;;;;;2124553;28;19927;-44
2022/09/30 06:29:18;;;;;;;;;;;;;;;;;;2124495;28;19927;-43
2022/09/30 06:30:19;;;;;;;;;;;;;;;;;;2124712;28;19923;-45
2022/09/30 06:31:20;;;;;;;;;;;;;;;;;;2124412;27;19974;-45
2022/09/30 06:32:21;;;;;;;;;;;;;;;;;;2124258;28;19972;-46
2022/09/30 06:33:22;;;;;;;;;;;;;;;;;;2124398;28;20376;-44
2022/09/30 06:34:23;;;;;;;;;;;;;;;;;;2124478;28;19927;-44
2022/09/30 06:35:27;;;;;;;;;;;;;;;;;;2124278;28;19923;-43
2022/09/30 06:36:28;;;;;;;;;;;;;;;;;;2124274;27;19928;-44
2022/09/30 06:37:29;;;;;;;;;;;;;;;;;;2124242;28;19956;-44
2022/09/30 06:38:30;;;;;;;;;;;;;;;;;;2124254;28;20097;-44
2022/09/30 06:39:31;;;;;;;;;;;;;;;;;;2124287;28;19924;-44
2022/09/30 06:40:31;;;;;;;;;;;;;;;;;;2124302;28;19923;-44
2022/09/30 06:41:32;;;;;;;;;;;;;;;;;;2124270;27;19924;-45
2022/09/30 06:42:33;;;;;;;;;;;;;;;;;;2124284;28;20014;-44
2022/09/30 06:43:34;;;;;;;;;;;;;;;;;;2124512;28;20000;-43
2022/09/30 06:44:39;;;;;;;;;;;;;;;;;;2124480;28;19930;-45
2022/09/30 06:45:52;;;;;;;;;;;;;;;;;;2124208;28;19976;-43
2022/09/30 06:46:54;;;;;;;;;;;;;;;;;;2124663;27;19930;-44
2022/09/30 06:47:55;;;;;;;;;;;;;;;;;;2124316;28;20380;-44
2022/09/30 06:49:00;;;;;;;;;;;;;;;;;;2124233;28;19976;-44
2022/09/30 06:50:12;;;;;;;;;;;;;;;;;;2124263;28;20379;-44
2022/09/30 06:51:24;;;;;;;;;;;;;;;;;;2124521;27;19923;-44
2022/09/30 06:52:26;;;;;;;;;;;;;;;;;;2124212;28;19923;-44
2022/09/30 06:53:26;;;;;;;;;;;;;;;;;;2124134;28;19931;-44
2022/09/30 06:54:30;;;;;;;;;;;;;;;;;;2124292;28;19923;-45
2022/09/30 06:55:30;;;;;;;;;;;;;;;;;;2124432;28;19924;-44
2022/09/30 06:56:31;;;;;;;;;;;;;;;;;;2124308;27;20006;-44
2022/09/30 06:57:34;;;;;;;;;;;;;;;;;;2131622;27;20371;-44
2022/09/30 06:58:35;;;;;;;;;;;;;;;;;;2133114;27;19923;-44